sensor_id;sensor_type;location;lat;lon;timestamp;P1;durP1;ratioP1;P2;durP2;ratioP2
58784;SDS011;44557;51.862;19.378;2023-05-10T00:00:17;5.90;;;3.60;;
58784;SDS011;44557;51.862;19.378;2023-05-10T00:02:38;10.80;;;4.20;;
58784;SDS011;44557;51.862;19.378;2023-05-10T00:04:41;7.30;;;3.80;;
58784;SDS011;44557;51.862;19.378;2023-05-10T00:06:43;8.70;;;3.80;;
58784;SDS011;44557;51.862;19.378;2023-05-10T00:08:45;10.80;;;4.80;;
58784;SDS011;44557;51.862;19.378;2023-05-10T00:10:46;7.40;;;3.80;;
58784;SDS011;44557;51.862;19.378;2023-05-10T00:12:48;7.60;;;4.00;;
58784;SDS011;44557;51.862;19.378;2023-05-10T00:14:50;7.50;;;4.40;;
58784;SDS011;44557;51.862;19.378;2023-05-10T00:16:51;8.50;;;4.20;;
58784;SDS011;44557;51.862;19.378;2023-05-10T00:18:53;8.20;;;4.30;;
58784;SDS011;44557;51.862;19.378;2023-05-10T00:20:55;11.20;;;4.40;;
58784;SDS011;44557;51.862;19.378;2023-05-10T00:22:56;8.80;;;3.80;;
58784;SDS011;44557;51.862;19.378;2023-05-10T00:24:58;6.60;;;4.00;;
58784;SDS011;44557;51.862;19.378;2023-05-10T00:27:00;7.80;;;4.10;;
58784;SDS011;44557;51.862;19.378;2023-05-10T00:29:02;8.00;;;4.00;;
58784;SDS011;44557;51.862;19.378;2023-05-10T00:31:03;7.30;;;3.90;;
58784;SDS011;44557;51.862;19.378;2023-05-10T00:33:05;7.70;;;3.60;;
58784;SDS011;44557;51.862;19.378;2023-05-10T00:35:07;7.30;;;3.50;;
58784;SDS011;44557;51.862;19.378;2023-05-10T00:37:09;8.60;;;3.70;;
58784;SDS011;44557;51.862;19.378;2023-05-10T00:39:11;7.00;;;3.70;;
58784;SDS011;44557;51.862;19.378;2023-05-10T00:41:14;7.50;;;3.80;;
58784;SDS011;44557;51.862;19.378;2023-05-10T00:43:16;7.60;;;3.90;;
58784;SDS011;44557;51.862;19.378;2023-05-10T00:45:18;8.00;;;3.90;;
58784;SDS011;44557;51.862;19.378;2023-05-10T00:47:20;9.00;;;4.10;;
58784;SDS011;44557;51.862;19.378;2023-05-10T00:49:22;8.60;;;4.60;;
58784;SDS011;44557;51.862;19.378;2023-05-10T00:51:23;6.50;;;3.40;;
58784;SDS011;44557;51.862;19.378;2023-05-10T00:53:26;6.80;;;3.50;;
58784;SDS011;44557;51.862;19.378;2023-05-10T00:55:29;9.40;;;4.00;;
58784;SDS011;44557;51.862;19.378;2023-05-10T00:57:32;7.90;;;3.60;;
58784;SDS011;44557;51.862;19.378;2023-05-10T00:59:34;8.90;;;4.20;;
58784;SDS011;44557;51.862;19.378;2023-05-10T01:01:35;7.40;;;3.70;;
58784;SDS011;44557;51.862;19.378;2023-05-10T01:03:37;8.30;;;3.50;;
58784;SDS011;44557;51.862;19.378;2023-05-10T01:05:40;8.70;;;3.90;;
58784;SDS011;44557;51.862;19.378;2023-05-10T01:07:43;8.60;;;3.50;;
58784;SDS011;44557;51.862;19.378;2023-05-10T01:09:44;6.40;;;3.50;;
58784;SDS011;44557;51.862;19.378;2023-05-10T01:11:47;8.20;;;4.10;;
58784;SDS011;44557;51.862;19.378;2023-05-10T01:13:52;8.80;;;4.20;;
58784;SDS011;44557;51.862;19.378;2023-05-10T01:15:57;7.50;;;4.00;;
58784;SDS011;44557;51.862;19.378;2023-05-10T01:18:03;8.90;;;4.10;;
58784;SDS011;44557;51.862;19.378;2023-05-10T01:20:05;8.70;;;4.30;;
58784;SDS011;44557;51.862;19.378;2023-05-10T01:27:47;8.60;;;4.00;;
58784;SDS011;44557;51.862;19.378;2023-05-10T01:32:27;8.10;;;3.90;;
58784;SDS011;44557;51.862;19.378;2023-05-10T01:34:42;7.30;;;3.40;;
58784;SDS011;44557;51.862;19.378;2023-05-10T01:36:48;7.80;;;3.80;;
58784;SDS011;44557;51.862;19.378;2023-05-10T01:43:48;12.00;;;4.30;;
58784;SDS011;44557;51.862;19.378;2023-05-10T01:46:07;9.40;;;4.10;;
58784;SDS011;44557;51.862;19.378;2023-05-10T01:48:14;6.70;;;3.80;;
58784;SDS011;44557;51.862;19.378;2023-05-10T01:50:22;7.60;;;3.90;;
58784;SDS011;44557;51.862;19.378;2023-05-10T01:52:33;7.10;;;3.60;;
58784;SDS011;44557;51.862;19.378;2023-05-10T01:54:42;8.60;;;3.90;;
58784;SDS011;44557;51.862;19.378;2023-05-10T01:58:58;9.40;;;4.10;;
58784;SDS011;44557;51.862;19.378;2023-05-10T02:01:04;7.30;;;3.70;;
58784;SDS011;44557;51.862;19.378;2023-05-10T02:03:08;10.10;;;4.50;;
58784;SDS011;44557;51.862;19.378;2023-05-10T02:05:13;9.20;;;3.90;;
58784;SDS011;44557;51.862;19.378;2023-05-10T02:07:16;8.20;;;4.00;;
58784;SDS011;44557;51.862;19.378;2023-05-10T02:09:20;7.00;;;3.80;;
58784;SDS011;44557;51.862;19.378;2023-05-10T02:11:23;7.20;;;3.90;;
58784;SDS011;44557;51.862;19.378;2023-05-10T02:13:26;12.70;;;4.20;;
58784;SDS011;44557;51.862;19.378;2023-05-10T02:15:28;8.60;;;3.70;;
58784;SDS011;44557;51.862;19.378;2023-05-10T02:17:32;8.20;;;3.60;;
58784;SDS011;44557;51.862;19.378;2023-05-10T02:19:38;9.10;;;3.50;;
58784;SDS011;44557;51.862;19.378;2023-05-10T02:21:42;7.50;;;3.20;;
58784;SDS011;44557;51.862;19.378;2023-05-10T02:23:45;8.50;;;3.90;;
58784;SDS011;44557;51.862;19.378;2023-05-10T02:25:50;8.40;;;3.60;;
58784;SDS011;44557;51.862;19.378;2023-05-10T02:27:54;7.10;;;3.60;;
58784;SDS011;44557;51.862;19.378;2023-05-10T02:29:58;9.80;;;3.90;;
58784;SDS011;44557;51.862;19.378;2023-05-10T02:32:00;6.90;;;4.00;;
58784;SDS011;44557;51.862;19.378;2023-05-10T02:34:03;7.10;;;3.80;;
58784;SDS011;44557;51.862;19.378;2023-05-10T02:36:07;7.00;;;3.60;;
58784;SDS011;44557;51.862;19.378;2023-05-10T02:38:11;7.00;;;4.00;;
58784;SDS011;44557;51.862;19.378;2023-05-10T02:40:16;6.60;;;3.80;;
58784;SDS011;44557;51.862;19.378;2023-05-10T02:42:19;6.30;;;3.90;;
58784;SDS011;44557;51.862;19.378;2023-05-10T02:44:25;7.70;;;3.90;;
58784;SDS011;44557;51.862;19.378;2023-05-10T02:46:30;8.50;;;4.10;;
58784;SDS011;44557;51.862;19.378;2023-05-10T02:48:32;10.00;;;4.50;;
58784;SDS011;44557;51.862;19.378;2023-05-10T02:50:34;8.70;;;4.00;;
58784;SDS011;44557;51.862;19.378;2023-05-10T02:52:44;7.10;;;4.00;;
58784;SDS011;44557;51.862;19.378;2023-05-10T02:54:52;8.20;;;3.60;;
58784;SDS011;44557;51.862;19.378;2023-05-10T02:56:57;10.20;;;4.00;;
58784;SDS011;44557;51.862;19.378;2023-05-10T02:59:04;7.20;;;3.80;;
58784;SDS011;44557;51.862;19.378;2023-05-10T03:01:06;9.70;;;3.80;;
58784;SDS011;44557;51.862;19.378;2023-05-10T03:03:09;7.50;;;3.60;;
58784;SDS011;44557;51.862;19.378;2023-05-10T03:05:11;8.50;;;3.90;;
58784;SDS011;44557;51.862;19.378;2023-05-10T03:07:13;9.60;;;4.20;;
58784;SDS011;44557;51.862;19.378;2023-05-10T03:09:15;8.50;;;3.90;;
58784;SDS011;44557;51.862;19.378;2023-05-10T03:15:55;7.20;;;3.90;;
58784;SDS011;44557;51.862;19.378;2023-05-10T03:18:12;8.00;;;3.80;;
58784;SDS011;44557;51.862;19.378;2023-05-10T03:20:27;8.70;;;3.90;;
58784;SDS011;44557;51.862;19.378;2023-05-10T03:22:44;7.40;;;3.60;;
58784;SDS011;44557;51.862;19.378;2023-05-10T03:24:49;9.80;;;4.20;;
58784;SDS011;44557;51.862;19.378;2023-05-10T03:26:52;7.50;;;4.20;;
58784;SDS011;44557;51.862;19.378;2023-05-10T03:28:57;7.60;;;4.10;;
58784;SDS011;44557;51.862;19.378;2023-05-10T03:31:00;8.60;;;4.00;;
58784;SDS011;44557;51.862;19.378;2023-05-10T03:33:04;7.80;;;4.20;;
58784;SDS011;44557;51.862;19.378;2023-05-10T03:35:11;8.60;;;3.90;;
58784;SDS011;44557;51.862;19.378;2023-05-10T03:37:14;8.30;;;4.00;;
58784;SDS011;44557;51.862;19.378;2023-05-10T03:39:16;9.50;;;3.50;;
58784;SDS011;44557;51.862;19.378;2023-05-10T03:41:18;9.40;;;4.00;;
58784;SDS011;44557;51.862;19.378;2023-05-10T03:43:20;6.70;;;3.30;;
58784;SDS011;44557;51.862;19.378;2023-05-10T03:45:21;8.90;;;3.70;;
58784;SDS011;44557;51.862;19.378;2023-05-10T03:47:23;7.90;;;3.50;;
58784;SDS011;44557;51.862;19.378;2023-05-10T03:49:25;7.80;;;3.40;;
58784;SDS011;44557;51.862;19.378;2023-05-10T03:51:27;8.50;;;4.00;;
58784;SDS011;44557;51.862;19.378;2023-05-10T03:53:29;7.20;;;3.60;;
58784;SDS011;44557;51.862;19.378;2023-05-10T03:55:31;7.80;;;3.40;;
58784;SDS011;44557;51.862;19.378;2023-05-10T03:57:35;8.10;;;3.50;;
58784;SDS011;44557;51.862;19.378;2023-05-10T03:59:37;6.30;;;3.50;;
58784;SDS011;44557;51.862;19.378;2023-05-10T04:01:38;6.40;;;3.40;;
58784;SDS011;44557;51.862;19.378;2023-05-10T04:03:40;7.40;;;3.30;;
58784;SDS011;44557;51.862;19.378;2023-05-10T04:05:42;6.40;;;3.60;;
58784;SDS011;44557;51.862;19.378;2023-05-10T04:07:43;7.20;;;3.90;;
58784;SDS011;44557;51.862;19.378;2023-05-10T04:09:46;5.80;;;2.90;;
58784;SDS011;44557;51.862;19.378;2023-05-10T04:11:48;6.70;;;3.20;;
58784;SDS011;44557;51.862;19.378;2023-05-10T04:13:50;7.70;;;3.80;;
58784;SDS011;44557;51.862;19.378;2023-05-10T04:15:51;7.20;;;3.40;;
58784;SDS011;44557;51.862;19.378;2023-05-10T04:17:53;7.30;;;3.50;;
58784;SDS011;44557;51.862;19.378;2023-05-10T04:19:55;7.20;;;3.60;;
58784;SDS011;44557;51.862;19.378;2023-05-10T04:21:57;7.50;;;3.30;;
58784;SDS011;44557;51.862;19.378;2023-05-10T04:23:59;6.40;;;3.60;;
58784;SDS011;44557;51.862;19.378;2023-05-10T04:26:02;7.10;;;3.70;;
58784;SDS011;44557;51.862;19.378;2023-05-10T04:28:04;8.00;;;3.70;;
58784;SDS011;44557;51.862;19.378;2023-05-10T04:30:06;9.60;;;3.50;;
58784;SDS011;44557;51.862;19.378;2023-05-10T04:32:08;10.90;;;3.60;;
58784;SDS011;44557;51.862;19.378;2023-05-10T04:34:11;7.90;;;3.50;;
58784;SDS011;44557;51.862;19.378;2023-05-10T04:36:13;8.20;;;3.30;;
58784;SDS011;44557;51.862;19.378;2023-05-10T04:38:14;8.50;;;3.50;;
58784;SDS011;44557;51.862;19.378;2023-05-10T04:40:17;6.70;;;3.40;;
58784;SDS011;44557;51.862;19.378;2023-05-10T04:42:18;6.50;;;3.30;;
58784;SDS011;44557;51.862;19.378;2023-05-10T04:44:20;8.60;;;3.60;;
58784;SDS011;44557;51.862;19.378;2023-05-10T04:46:22;7.30;;;3.40;;
58784;SDS011;44557;51.862;19.378;2023-05-10T04:48:23;7.30;;;3.20;;
58784;SDS011;44557;51.862;19.378;2023-05-10T04:50:26;6.00;;;3.50;;
58784;SDS011;44557;51.862;19.378;2023-05-10T04:52:28;10.40;;;3.70;;
58784;SDS011;44557;51.862;19.378;2023-05-10T04:54:29;8.20;;;3.40;;
58784;SDS011;44557;51.862;19.378;2023-05-10T04:56:32;9.80;;;3.70;;
58784;SDS011;44557;51.862;19.378;2023-05-10T04:58:34;8.90;;;4.00;;
58784;SDS011;44557;51.862;19.378;2023-05-10T05:00:37;8.30;;;3.40;;
58784;SDS011;44557;51.862;19.378;2023-05-10T05:02:41;10.00;;;3.60;;
58784;SDS011;44557;51.862;19.378;2023-05-10T05:04:45;7.40;;;3.50;;
58784;SDS011;44557;51.862;19.378;2023-05-10T05:06:46;10.90;;;3.60;;
58784;SDS011;44557;51.862;19.378;2023-05-10T05:08:48;5.70;;;3.10;;
58784;SDS011;44557;51.862;19.378;2023-05-10T05:10:50;6.80;;;3.40;;
58784;SDS011;44557;51.862;19.378;2023-05-10T05:12:52;7.60;;;3.40;;
58784;SDS011;44557;51.862;19.378;2023-05-10T05:14:53;9.00;;;3.80;;
58784;SDS011;44557;51.862;19.378;2023-05-10T05:16:56;8.10;;;3.20;;
58784;SDS011;44557;51.862;19.378;2023-05-10T05:18:59;8.60;;;4.00;;
58784;SDS011;44557;51.862;19.378;2023-05-10T05:21:02;7.30;;;3.80;;
58784;SDS011;44557;51.862;19.378;2023-05-10T05:23:04;9.20;;;3.30;;
58784;SDS011;44557;51.862;19.378;2023-05-10T05:25:06;9.60;;;3.60;;
58784;SDS011;44557;51.862;19.378;2023-05-10T05:27:08;8.20;;;3.90;;
58784;SDS011;44557;51.862;19.378;2023-05-10T05:29:10;6.90;;;3.50;;
58784;SDS011;44557;51.862;19.378;2023-05-10T05:31:11;8.10;;;4.10;;
58784;SDS011;44557;51.862;19.378;2023-05-10T05:33:14;8.90;;;4.00;;
58784;SDS011;44557;51.862;19.378;2023-05-10T05:35:16;7.10;;;3.10;;
58784;SDS011;44557;51.862;19.378;2023-05-10T05:37:19;7.70;;;3.70;;
58784;SDS011;44557;51.862;19.378;2023-05-10T05:39:23;10.00;;;3.60;;
58784;SDS011;44557;51.862;19.378;2023-05-10T05:41:25;7.10;;;3.40;;
58784;SDS011;44557;51.862;19.378;2023-05-10T05:43:27;10.90;;;4.00;;
58784;SDS011;44557;51.862;19.378;2023-05-10T05:45:28;8.40;;;3.00;;
58784;SDS011;44557;51.862;19.378;2023-05-10T05:47:30;6.80;;;3.30;;
58784;SDS011;44557;51.862;19.378;2023-05-10T05:49:32;7.60;;;3.20;;
58784;SDS011;44557;51.862;19.378;2023-05-10T05:51:33;7.00;;;3.40;;
58784;SDS011;44557;51.862;19.378;2023-05-10T05:53:36;7.00;;;3.70;;
58784;SDS011;44557;51.862;19.378;2023-05-10T05:55:38;9.10;;;4.00;;
58784;SDS011;44557;51.862;19.378;2023-05-10T05:57:39;8.80;;;3.40;;
58784;SDS011;44557;51.862;19.378;2023-05-10T05:59:41;6.30;;;3.30;;
58784;SDS011;44557;51.862;19.378;2023-05-10T06:01:45;6.90;;;3.50;;
58784;SDS011;44557;51.862;19.378;2023-05-10T06:03:46;4.90;;;3.00;;
58784;SDS011;44557;51.862;19.378;2023-05-10T06:05:48;10.70;;;3.80;;
58784;SDS011;44557;51.862;19.378;2023-05-10T06:07:50;7.60;;;3.60;;
58784;SDS011;44557;51.862;19.378;2023-05-10T06:09:52;8.00;;;3.10;;
58784;SDS011;44557;51.862;19.378;2023-05-10T06:11:54;5.10;;;2.90;;
58784;SDS011;44557;51.862;19.378;2023-05-10T06:13:56;7.30;;;3.30;;
58784;SDS011;44557;51.862;19.378;2023-05-10T06:15:59;6.10;;;3.00;;
58784;SDS011;44557;51.862;19.378;2023-05-10T06:18:01;7.00;;;3.40;;
58784;SDS011;44557;51.862;19.378;2023-05-10T06:20:03;7.20;;;3.60;;
58784;SDS011;44557;51.862;19.378;2023-05-10T06:22:06;7.20;;;3.60;;
58784;SDS011;44557;51.862;19.378;2023-05-10T06:24:08;9.20;;;3.80;;
58784;SDS011;44557;51.862;19.378;2023-05-10T06:26:09;6.50;;;2.90;;
58784;SDS011;44557;51.862;19.378;2023-05-10T06:28:12;6.00;;;3.00;;
58784;SDS011;44557;51.862;19.378;2023-05-10T06:30:14;7.50;;;3.30;;
58784;SDS011;44557;51.862;19.378;2023-05-10T06:32:15;9.30;;;3.30;;
58784;SDS011;44557;51.862;19.378;2023-05-10T06:34:17;6.90;;;3.40;;
58784;SDS011;44557;51.862;19.378;2023-05-10T06:36:19;9.60;;;3.60;;
58784;SDS011;44557;51.862;19.378;2023-05-10T06:38:21;8.40;;;3.00;;
58784;SDS011;44557;51.862;19.378;2023-05-10T06:40:23;6.70;;;3.30;;
58784;SDS011;44557;51.862;19.378;2023-05-10T06:42:24;6.70;;;3.20;;
58784;SDS011;44557;51.862;19.378;2023-05-10T06:44:27;7.00;;;3.40;;
58784;SDS011;44557;51.862;19.378;2023-05-10T06:46:29;6.10;;;3.40;;
58784;SDS011;44557;51.862;19.378;2023-05-10T06:48:31;7.50;;;3.60;;
58784;SDS011;44557;51.862;19.378;2023-05-10T06:50:33;6.60;;;3.60;;
58784;SDS011;44557;51.862;19.378;2023-05-10T06:52:34;8.30;;;3.50;;
58784;SDS011;44557;51.862;19.378;2023-05-10T06:54:36;7.30;;;3.10;;
58784;SDS011;44557;51.862;19.378;2023-05-10T06:56:38;6.10;;;3.40;;
58784;SDS011;44557;51.862;19.378;2023-05-10T06:58:39;6.30;;;3.20;;
58784;SDS011;44557;51.862;19.378;2023-05-10T07:00:41;5.30;;;3.10;;
58784;SDS011;44557;51.862;19.378;2023-05-10T07:02:46;6.80;;;3.30;;
58784;SDS011;44557;51.862;19.378;2023-05-10T07:04:48;5.90;;;3.20;;
58784;SDS011;44557;51.862;19.378;2023-05-10T07:06:50;9.10;;;3.60;;
58784;SDS011;44557;51.862;19.378;2023-05-10T07:08:52;6.70;;;3.30;;
58784;SDS011;44557;51.862;19.378;2023-05-10T07:10:59;10.40;;;3.30;;
58784;SDS011;44557;51.862;19.378;2023-05-10T07:13:01;9.30;;;3.20;;
58784;SDS011;44557;51.862;19.378;2023-05-10T07:15:03;8.40;;;3.70;;
58784;SDS011;44557;51.862;19.378;2023-05-10T07:17:06;7.10;;;3.30;;
58784;SDS011;44557;51.862;19.378;2023-05-10T07:19:08;6.60;;;3.40;;
58784;SDS011;44557;51.862;19.378;2023-05-10T07:21:10;9.50;;;3.20;;
58784;SDS011;44557;51.862;19.378;2023-05-10T07:23:11;9.40;;;4.70;;
58784;SDS011;44557;51.862;19.378;2023-05-10T07:25:13;7.90;;;3.60;;
58784;SDS011;44557;51.862;19.378;2023-05-10T07:27:15;7.50;;;3.30;;
58784;SDS011;44557;51.862;19.378;2023-05-10T07:29:17;7.90;;;3.80;;
58784;SDS011;44557;51.862;19.378;2023-05-10T07:31:18;8.40;;;4.30;;
58784;SDS011;44557;51.862;19.378;2023-05-10T07:33:20;7.90;;;3.60;;
58784;SDS011;44557;51.862;19.378;2023-05-10T07:35:22;7.80;;;4.00;;
58784;SDS011;44557;51.862;19.378;2023-05-10T07:37:23;8.60;;;3.50;;
58784;SDS011;44557;51.862;19.378;2023-05-10T07:39:25;6.30;;;2.80;;
58784;SDS011;44557;51.862;19.378;2023-05-10T07:41:30;9.10;;;3.60;;
58784;SDS011;44557;51.862;19.378;2023-05-10T07:43:31;10.10;;;3.60;;
58784;SDS011;44557;51.862;19.378;2023-05-10T07:45:33;7.90;;;3.60;;
58784;SDS011;44557;51.862;19.378;2023-05-10T07:47:35;8.30;;;3.50;;
58784;SDS011;44557;51.862;19.378;2023-05-10T07:49:37;6.70;;;3.50;;
58784;SDS011;44557;51.862;19.378;2023-05-10T07:51:38;8.30;;;3.50;;
58784;SDS011;44557;51.862;19.378;2023-05-10T07:53:40;8.00;;;3.50;;
58784;SDS011;44557;51.862;19.378;2023-05-10T07:55:43;6.00;;;3.20;;
58784;SDS011;44557;51.862;19.378;2023-05-10T07:57:46;6.40;;;3.60;;
58784;SDS011;44557;51.862;19.378;2023-05-10T07:59:48;7.10;;;3.50;;
58784;SDS011;44557;51.862;19.378;2023-05-10T08:01:49;6.90;;;3.10;;
58784;SDS011;44557;51.862;19.378;2023-05-10T08:03:51;7.20;;;3.40;;
58784;SDS011;44557;51.862;19.378;2023-05-10T08:05:54;5.70;;;3.50;;
58784;SDS011;44557;51.862;19.378;2023-05-10T08:07:56;5.60;;;3.30;;
58784;SDS011;44557;51.862;19.378;2023-05-10T08:09:58;7.00;;;3.80;;
58784;SDS011;44557;51.862;19.378;2023-05-10T08:12:00;6.40;;;3.40;;
58784;SDS011;44557;51.862;19.378;2023-05-10T08:14:02;10.10;;;3.80;;
58784;SDS011;44557;51.862;19.378;2023-05-10T08:16:04;8.20;;;3.50;;
58784;SDS011;44557;51.862;19.378;2023-05-10T08:18:06;6.10;;;3.40;;
58784;SDS011;44557;51.862;19.378;2023-05-10T08:20:08;8.20;;;3.40;;
58784;SDS011;44557;51.862;19.378;2023-05-10T08:22:10;6.10;;;3.40;;
58784;SDS011;44557;51.862;19.378;2023-05-10T08:24:12;6.80;;;3.40;;
58784;SDS011;44557;51.862;19.378;2023-05-10T08:26:13;8.40;;;3.40;;
58784;SDS011;44557;51.862;19.378;2023-05-10T08:28:15;6.00;;;2.80;;
58784;SDS011;44557;51.862;19.378;2023-05-10T08:30:16;7.50;;;3.10;;
58784;SDS011;44557;51.862;19.378;2023-05-10T08:32:19;6.90;;;3.30;;
58784;SDS011;44557;51.862;19.378;2023-05-10T08:34:20;6.70;;;3.20;;
58784;SDS011;44557;51.862;19.378;2023-05-10T08:36:22;7.50;;;3.00;;
58784;SDS011;44557;51.862;19.378;2023-05-10T08:38:25;5.90;;;2.80;;
58784;SDS011;44557;51.862;19.378;2023-05-10T08:40:27;6.20;;;2.90;;
58784;SDS011;44557;51.862;19.378;2023-05-10T08:42:30;6.10;;;2.60;;
58784;SDS011;44557;51.862;19.378;2023-05-10T08:44:34;7.10;;;2.50;;
58784;SDS011;44557;51.862;19.378;2023-05-10T08:46:41;7.20;;;3.00;;
58784;SDS011;44557;51.862;19.378;2023-05-10T08:48:47;8.90;;;3.20;;
58784;SDS011;44557;51.862;19.378;2023-05-10T08:50:52;6.50;;;3.10;;
58784;SDS011;44557;51.862;19.378;2023-05-10T08:52:56;5.50;;;2.90;;
58784;SDS011;44557;51.862;19.378;2023-05-10T08:55:00;7.80;;;3.30;;
58784;SDS011;44557;51.862;19.378;2023-05-10T08:57:02;7.70;;;2.90;;
58784;SDS011;44557;51.862;19.378;2023-05-10T08:59:05;6.50;;;3.10;;
58784;SDS011;44557;51.862;19.378;2023-05-10T09:01:07;6.50;;;3.00;;
58784;SDS011;44557;51.862;19.378;2023-05-10T09:03:10;6.60;;;2.80;;
58784;SDS011;44557;51.862;19.378;2023-05-10T09:05:13;5.20;;;2.80;;
58784;SDS011;44557;51.862;19.378;2023-05-10T09:07:17;5.70;;;2.70;;
58784;SDS011;44557;51.862;19.378;2023-05-10T09:09:21;6.30;;;2.90;;
58784;SDS011;44557;51.862;19.378;2023-05-10T09:11:27;7.30;;;3.30;;
58784;SDS011;44557;51.862;19.378;2023-05-10T09:13:31;6.10;;;2.50;;
58784;SDS011;44557;51.862;19.378;2023-05-10T09:15:34;8.30;;;3.00;;
58784;SDS011;44557;51.862;19.378;2023-05-10T09:17:36;5.00;;;2.30;;
58784;SDS011;44557;51.862;19.378;2023-05-10T09:19:41;4.90;;;2.40;;
58784;SDS011;44557;51.862;19.378;2023-05-10T09:21:43;6.50;;;2.80;;
58784;SDS011;44557;51.862;19.378;2023-05-10T09:23:45;6.30;;;2.60;;
58784;SDS011;44557;51.862;19.378;2023-05-10T09:26:01;5.50;;;2.70;;
58784;SDS011;44557;51.862;19.378;2023-05-10T09:28:06;6.10;;;2.60;;
58784;SDS011;44557;51.862;19.378;2023-05-10T09:30:11;7.30;;;2.60;;
58784;SDS011;44557;51.862;19.378;2023-05-10T09:32:17;5.30;;;2.50;;
58784;SDS011;44557;51.862;19.378;2023-05-10T09:34:19;6.10;;;2.70;;
58784;SDS011;44557;51.862;19.378;2023-05-10T09:36:22;5.50;;;3.00;;
58784;SDS011;44557;51.862;19.378;2023-05-10T09:38:24;6.80;;;2.40;;
58784;SDS011;44557;51.862;19.378;2023-05-10T09:40:27;7.60;;;2.70;;
58784;SDS011;44557;51.862;19.378;2023-05-10T09:42:30;5.20;;;2.60;;
58784;SDS011;44557;51.862;19.378;2023-05-10T09:44:32;6.90;;;2.40;;
58784;SDS011;44557;51.862;19.378;2023-05-10T09:46:35;6.10;;;3.00;;
58784;SDS011;44557;51.862;19.378;2023-05-10T09:48:44;6.70;;;2.80;;
58784;SDS011;44557;51.862;19.378;2023-05-10T09:50:55;8.30;;;3.00;;
58784;SDS011;44557;51.862;19.378;2023-05-10T09:55:01;4.20;;;2.60;;
58784;SDS011;44557;51.862;19.378;2023-05-10T09:57:04;6.50;;;2.70;;
58784;SDS011;44557;51.862;19.378;2023-05-10T09:59:19;8.20;;;3.10;;
58784;SDS011;44557;51.862;19.378;2023-05-10T10:01:22;6.10;;;2.60;;
58784;SDS011;44557;51.862;19.378;2023-05-10T10:03:27;6.80;;;2.40;;
58784;SDS011;44557;51.862;19.378;2023-05-10T10:05:32;11.20;;;2.90;;
58784;SDS011;44557;51.862;19.378;2023-05-10T10:07:36;9.20;;;2.90;;
58784;SDS011;44557;51.862;19.378;2023-05-10T10:09:38;6.90;;;2.90;;
58784;SDS011;44557;51.862;19.378;2023-05-10T10:11:41;5.50;;;2.70;;
58784;SDS011;44557;51.862;19.378;2023-05-10T10:13:43;6.60;;;2.90;;
58784;SDS011;44557;51.862;19.378;2023-05-10T10:15:45;6.10;;;2.80;;
58784;SDS011;44557;51.862;19.378;2023-05-10T10:17:48;6.40;;;2.50;;
58784;SDS011;44557;51.862;19.378;2023-05-10T10:19:51;8.10;;;3.50;;
58784;SDS011;44557;51.862;19.378;2023-05-10T10:21:53;5.50;;;2.80;;
58784;SDS011;44557;51.862;19.378;2023-05-10T10:23:54;7.00;;;3.00;;
58784;SDS011;44557;51.862;19.378;2023-05-10T10:25:56;9.40;;;3.20;;
58784;SDS011;44557;51.862;19.378;2023-05-10T10:37:16;5.50;;;2.80;;
58784;SDS011;44557;51.862;19.378;2023-05-10T10:39:18;6.50;;;2.70;;
58784;SDS011;44557;51.862;19.378;2023-05-10T10:43:36;6.20;;;2.70;;
58784;SDS011;44557;51.862;19.378;2023-05-10T10:45:38;3.90;;;2.80;;
58784;SDS011;44557;51.862;19.378;2023-05-10T10:47:41;6.80;;;3.20;;
58784;SDS011;44557;51.862;19.378;2023-05-10T10:49:48;7.60;;;2.70;;
58784;SDS011;44557;51.862;19.378;2023-05-10T10:52:13;6.20;;;3.00;;
58784;SDS011;44557;51.862;19.378;2023-05-10T10:54:20;6.10;;;2.90;;
58784;SDS011;44557;51.862;19.378;2023-05-10T10:56:29;6.50;;;2.70;;
58784;SDS011;44557;51.862;19.378;2023-05-10T10:58:31;4.70;;;2.30;;
58784;SDS011;44557;51.862;19.378;2023-05-10T11:00:35;6.20;;;2.40;;
58784;SDS011;44557;51.862;19.378;2023-05-10T11:04:47;6.10;;;2.80;;
58784;SDS011;44557;51.862;19.378;2023-05-10T11:06:48;9.40;;;2.80;;
58784;SDS011;44557;51.862;19.378;2023-05-10T11:08:50;6.20;;;2.70;;
58784;SDS011;44557;51.862;19.378;2023-05-10T11:13:08;8.10;;;2.50;;
58784;SDS011;44557;51.862;19.378;2023-05-10T11:15:11;6.60;;;2.80;;
58784;SDS011;44557;51.862;19.378;2023-05-10T11:17:22;5.90;;;2.40;;
58784;SDS011;44557;51.862;19.378;2023-05-10T11:19:27;4.10;;;2.40;;
58784;SDS011;44557;51.862;19.378;2023-05-10T11:21:32;4.60;;;2.70;;
58784;SDS011;44557;51.862;19.378;2023-05-10T11:25:52;8.50;;;2.80;;
58784;SDS011;44557;51.862;19.378;2023-05-10T11:27:53;10.00;;;3.10;;
58784;SDS011;44557;51.862;19.378;2023-05-10T11:29:55;6.70;;;2.40;;
58784;SDS011;44557;51.862;19.378;2023-05-10T11:31:58;8.30;;;3.30;;
58784;SDS011;44557;51.862;19.378;2023-05-10T11:34:00;6.00;;;2.70;;
58784;SDS011;44557;51.862;19.378;2023-05-10T11:36:06;6.00;;;2.80;;
58784;SDS011;44557;51.862;19.378;2023-05-10T11:38:12;5.50;;;3.00;;
58784;SDS011;44557;51.862;19.378;2023-05-10T11:40:15;4.00;;;2.50;;
58784;SDS011;44557;51.862;19.378;2023-05-10T11:42:18;8.60;;;2.90;;
58784;SDS011;44557;51.862;19.378;2023-05-10T11:44:19;5.70;;;2.50;;
58784;SDS011;44557;51.862;19.378;2023-05-10T11:46:22;5.70;;;2.60;;
58784;SDS011;44557;51.862;19.378;2023-05-10T11:48:26;6.30;;;3.00;;
58784;SDS011;44557;51.862;19.378;2023-05-10T11:50:30;6.40;;;3.20;;
58784;SDS011;44557;51.862;19.378;2023-05-10T11:52:35;5.10;;;2.90;;
58784;SDS011;44557;51.862;19.378;2023-05-10T11:54:46;6.60;;;2.20;;
58784;SDS011;44557;51.862;19.378;2023-05-10T11:56:53;3.10;;;2.10;;
58784;SDS011;44557;51.862;19.378;2023-05-10T11:58:56;5.10;;;2.60;;
58784;SDS011;44557;51.862;19.378;2023-05-10T12:00:59;5.20;;;2.60;;
58784;SDS011;44557;51.862;19.378;2023-05-10T12:03:03;4.70;;;2.70;;
58784;SDS011;44557;51.862;19.378;2023-05-10T12:05:05;6.90;;;3.10;;
58784;SDS011;44557;51.862;19.378;2023-05-10T12:07:07;9.70;;;2.80;;
58784;SDS011;44557;51.862;19.378;2023-05-10T12:09:09;6.80;;;2.90;;
58784;SDS011;44557;51.862;19.378;2023-05-10T12:11:11;4.70;;;2.50;;
58784;SDS011;44557;51.862;19.378;2023-05-10T12:13:14;6.20;;;2.60;;
58784;SDS011;44557;51.862;19.378;2023-05-10T12:17:18;5.10;;;2.30;;
58784;SDS011;44557;51.862;19.378;2023-05-10T12:19:20;8.30;;;3.00;;
58784;SDS011;44557;51.862;19.378;2023-05-10T12:21:22;5.80;;;2.50;;
58784;SDS011;44557;51.862;19.378;2023-05-10T12:23:24;6.00;;;2.50;;
58784;SDS011;44557;51.862;19.378;2023-05-10T12:25:31;9.70;;;3.40;;
58784;SDS011;44557;51.862;19.378;2023-05-10T12:27:35;7.60;;;2.70;;
58784;SDS011;44557;51.862;19.378;2023-05-10T12:29:36;6.90;;;2.60;;
58784;SDS011;44557;51.862;19.378;2023-05-10T12:31:57;4.90;;;3.20;;
58784;SDS011;44557;51.862;19.378;2023-05-10T12:34:00;7.50;;;3.30;;
58784;SDS011;44557;51.862;19.378;2023-05-10T12:36:02;6.80;;;2.40;;
58784;SDS011;44557;51.862;19.378;2023-05-10T12:38:22;8.50;;;3.00;;
58784;SDS011;44557;51.862;19.378;2023-05-10T12:40:30;6.40;;;2.80;;
58784;SDS011;44557;51.862;19.378;2023-05-10T12:42:33;8.50;;;2.70;;
58784;SDS011;44557;51.862;19.378;2023-05-10T12:44:37;8.10;;;3.20;;
58784;SDS011;44557;51.862;19.378;2023-05-10T12:46:38;5.00;;;2.40;;
58784;SDS011;44557;51.862;19.378;2023-05-10T12:48:41;6.70;;;2.90;;
58784;SDS011;44557;51.862;19.378;2023-05-10T12:50:45;5.50;;;2.50;;
58784;SDS011;44557;51.862;19.378;2023-05-10T12:52:47;7.70;;;2.70;;